createdAt,value
2018-12-07T00:01:23.626Z,1.07
2018-12-07T00:03:52.142Z,1.40
2018-12-07T00:06:20.444Z,1.10
2018-12-07T00:08:48.779Z,0.90
2018-12-07T00:11:17.229Z,1.00
2018-12-07T00:13:45.553Z,1.00
2018-12-07T00:16:13.875Z,1.00
2018-12-07T00:18:42.193Z,1.10
2018-12-07T00:21:10.538Z,1.20
2018-12-07T00:23:38.868Z,1.10
2018-12-07T00:26:07.132Z,0.87
2018-12-07T00:28:35.498Z,1.00
2018-12-07T00:31:03.940Z,0.90
2018-12-07T00:33:32.292Z,1.10
2018-12-07T00:36:00.693Z,0.90
2018-12-07T00:38:29.005Z,0.80
2018-12-07T00:40:57.349Z,1.00
2018-12-07T00:43:25.782Z,0.97
2018-12-07T00:45:54.336Z,1.10
2018-12-07T00:48:22.684Z,1.23
2018-12-07T00:50:51.126Z,0.93
2018-12-07T00:53:19.540Z,1.00
2018-12-07T00:55:47.876Z,0.90
2018-12-07T00:58:16.267Z,1.20
2018-12-07T01:00:44.584Z,0.70
2018-12-07T01:03:12.890Z,1.07
2018-12-07T01:05:41.165Z,0.80
2018-12-07T01:08:09.533Z,0.90
2018-12-07T01:10:37.831Z,1.17
2018-12-07T01:13:06.271Z,0.83
2018-12-07T01:15:34.629Z,0.70
2018-12-07T01:18:02.953Z,0.80
2018-12-07T01:20:31.250Z,1.03
2018-12-07T01:22:59.572Z,0.83
2018-12-07T01:25:27.887Z,0.70
2018-12-07T01:27:56.236Z,0.67
2018-12-07T01:30:24.576Z,0.93
2018-12-07T01:32:52.877Z,0.80
2018-12-07T01:35:21.184Z,0.60
2018-12-07T01:37:49.717Z,0.70
2018-12-07T01:40:19.427Z,0.50
2018-12-07T01:42:47.799Z,0.73
2018-12-07T01:45:16.180Z,0.60
2018-12-07T01:47:46.625Z,0.70
2018-12-07T01:50:15.824Z,0.60
2018-12-07T01:52:44.246Z,0.60
2018-12-07T01:55:12.600Z,0.57
2018-12-07T01:57:40.944Z,0.50
2018-12-07T02:00:09.289Z,0.40
2018-12-07T02:02:37.588Z,0.60
2018-12-07T02:05:06.462Z,0.50
2018-12-07T02:07:35.073Z,0.70
2018-12-07T02:10:03.380Z,0.70
2018-12-07T02:12:31.689Z,0.60
2018-12-07T02:15:00.073Z,0.50
2018-12-07T02:17:28.441Z,0.50
2018-12-07T02:19:56.725Z,0.50
2018-12-07T02:22:25.074Z,0.50
2018-12-07T02:24:53.465Z,0.50
2018-12-07T02:27:22.003Z,0.50
2018-12-07T02:29:50.390Z,0.80
2018-12-07T02:32:18.902Z,0.50
2018-12-07T02:34:47.212Z,0.70
2018-12-07T02:37:15.485Z,0.67
2018-12-07T02:39:43.786Z,0.53
2018-12-07T02:42:12.069Z,0.60
2018-12-07T02:44:40.440Z,0.53
2018-12-07T02:47:08.716Z,0.60
2018-12-07T02:49:37.100Z,0.43
2018-12-07T02:52:05.386Z,0.50
2018-12-07T02:54:33.699Z,0.60
2018-12-07T02:57:02.030Z,0.30
2018-12-07T02:59:30.394Z,0.60
2018-12-07T03:01:58.650Z,0.60
2018-12-07T03:04:26.961Z,0.50
2018-12-07T03:06:55.331Z,0.30
2018-12-07T03:09:23.665Z,0.50
2018-12-07T03:11:51.978Z,0.60
2018-12-07T03:14:20.363Z,0.60
2018-12-07T03:16:48.648Z,0.50
2018-12-07T03:19:16.942Z,0.50
2018-12-07T03:21:45.222Z,0.43
2018-12-07T03:24:13.872Z,0.60
2018-12-07T03:26:42.169Z,0.50
2018-12-07T03:29:10.445Z,0.47
2018-12-07T03:31:38.742Z,0.40
2018-12-07T03:34:07.037Z,0.50
2018-12-07T03:36:35.364Z,0.40
2018-12-07T03:39:04.418Z,0.40
2018-12-07T03:41:32.728Z,0.50
2018-12-07T03:44:01.087Z,0.47
2018-12-07T03:46:29.376Z,0.43
2018-12-07T03:48:57.656Z,0.40
2018-12-07T03:51:25.962Z,0.43
2018-12-07T03:53:54.242Z,0.50
2018-12-07T03:56:22.565Z,0.47
2018-12-07T03:58:50.940Z,0.50
2018-12-07T04:01:19.231Z,0.40
2018-12-07T04:03:47.501Z,0.50
2018-12-07T04:06:15.974Z,0.50
2018-12-07T04:08:44.565Z,0.30
2018-12-07T04:11:12.867Z,0.40
2018-12-07T04:13:41.185Z,0.40
2018-12-07T04:16:09.490Z,0.40
2018-12-07T04:18:38.763Z,0.30
2018-12-07T04:21:07.192Z,0.30
2018-12-07T04:23:35.533Z,0.30
2018-12-07T04:26:03.929Z,0.30
2018-12-07T04:28:32.313Z,0.30
2018-12-07T04:31:00.673Z,0.30
2018-12-07T04:33:28.958Z,0.50
2018-12-07T04:35:57.272Z,0.53
2018-12-07T04:38:25.548Z,0.40
2018-12-07T04:40:53.868Z,0.30
2018-12-07T04:43:22.159Z,0.40
2018-12-07T04:45:50.530Z,0.40
2018-12-07T04:48:18.936Z,0.50
2018-12-07T04:50:47.224Z,0.50
2018-12-07T04:53:15.527Z,0.30
2018-12-07T04:55:43.843Z,0.50
2018-12-07T04:58:12.200Z,0.40
2018-12-07T05:00:40.594Z,0.50
2018-12-07T05:03:08.971Z,0.30
2018-12-07T05:05:37.273Z,0.60
2018-12-07T05:08:05.621Z,0.40
2018-12-07T05:10:33.993Z,0.50
2018-12-07T05:13:02.264Z,0.40
2018-12-07T05:15:30.634Z,0.50
2018-12-07T05:17:58.928Z,0.50
2018-12-07T05:20:27.290Z,0.53
2018-12-07T05:22:55.578Z,0.40
2018-12-07T05:25:23.976Z,0.40
2018-12-07T05:27:52.301Z,0.30
2018-12-07T05:30:20.675Z,0.40
2018-12-07T05:32:48.974Z,0.40
2018-12-07T05:35:17.495Z,0.40
2018-12-07T05:37:45.835Z,0.40
2018-12-07T05:40:14.113Z,0.40
2018-12-07T05:42:42.489Z,0.60
2018-12-07T05:45:10.862Z,0.40
2018-12-07T05:47:39.143Z,0.40
2018-12-07T05:50:08.613Z,0.30
2018-12-07T05:52:36.904Z,0.60
2018-12-07T05:55:05.652Z,0.50
2018-12-07T05:57:33.984Z,0.40
2018-12-07T06:00:02.275Z,0.83
2018-12-07T06:02:30.709Z,0.50
2018-12-07T06:04:58.978Z,0.70
2018-12-07T06:07:27.283Z,0.50
2018-12-07T06:09:55.665Z,0.50
2018-12-07T06:12:23.962Z,0.60
2018-12-07T06:14:52.312Z,0.50
2018-12-07T06:17:20.692Z,0.40
2018-12-07T06:19:48.969Z,0.40
2018-12-07T06:22:17.289Z,0.30
2018-12-07T06:24:45.565Z,0.30
2018-12-07T06:27:13.905Z,0.40
2018-12-07T06:29:42.176Z,0.40
2018-12-07T06:32:10.625Z,0.40
2018-12-07T06:34:38.905Z,0.50
2018-12-07T06:37:07.196Z,0.50
2018-12-07T06:39:35.478Z,0.47
2018-12-07T06:42:03.769Z,0.47
2018-12-07T06:44:32.053Z,0.50
2018-12-07T06:47:00.352Z,0.53
2018-12-07T06:49:28.656Z,0.50
2018-12-07T06:51:56.951Z,0.50
2018-12-07T06:54:25.232Z,0.37
2018-12-07T06:56:53.683Z,0.50
2018-12-07T06:59:22.264Z,0.40
2018-12-07T07:01:50.576Z,0.40
2018-12-07T07:04:18.944Z,0.47
2018-12-07T07:06:47.282Z,0.60
2018-12-07T07:09:15.813Z,0.40
2018-12-07T07:11:44.183Z,0.60
2018-12-07T07:14:12.557Z,0.50
2018-12-07T07:16:40.852Z,0.40
2018-12-07T07:19:09.124Z,0.50
2018-12-07T07:21:37.449Z,0.47
2018-12-07T07:24:05.747Z,0.60
2018-12-07T07:26:34.047Z,0.50
2018-12-07T07:29:02.788Z,0.40
2018-12-07T07:31:31.112Z,0.40
2018-12-07T07:33:59.411Z,0.67
2018-12-07T07:36:27.745Z,0.40
2018-12-07T07:38:56.054Z,0.50
2018-12-07T07:41:24.476Z,0.50
2018-12-07T07:43:53.075Z,0.50
2018-12-07T07:46:21.519Z,0.50
2018-12-07T07:48:50.138Z,0.80
2018-12-07T07:51:18.547Z,0.50
2018-12-07T07:53:46.848Z,0.50
2018-12-07T07:56:15.640Z,0.60
2018-12-07T07:58:44.472Z,0.60
2018-12-07T08:01:12.774Z,0.57
2018-12-07T08:03:41.074Z,0.73
2018-12-07T08:06:09.416Z,0.50
2018-12-07T08:08:37.707Z,0.63
2018-12-07T08:11:05.997Z,0.53
2018-12-07T08:13:34.336Z,0.50
2018-12-07T08:16:02.640Z,0.63
2018-12-07T08:18:31.039Z,0.60
2018-12-07T08:20:59.312Z,0.40
2018-12-07T08:23:27.646Z,0.50
2018-12-07T08:25:55.992Z,0.50
2018-12-07T08:28:24.301Z,0.60
2018-12-07T08:30:52.578Z,0.50
2018-12-07T08:33:20.947Z,0.50
2018-12-07T08:35:49.223Z,0.60
2018-12-07T08:38:17.515Z,0.50
2018-12-07T08:40:45.800Z,0.60
2018-12-07T08:43:14.110Z,0.50
2018-12-07T08:45:42.425Z,0.53
2018-12-07T08:48:10.806Z,0.47
2018-12-07T08:50:39.178Z,0.60
2018-12-07T08:53:07.689Z,1.00
2018-12-07T08:55:36.109Z,0.50
2018-12-07T08:58:04.487Z,0.40
2018-12-07T09:00:32.769Z,0.50
2018-12-07T09:03:01.168Z,0.40
2018-12-07T09:05:29.588Z,0.30
2018-12-07T09:07:57.950Z,0.40
2018-12-07T09:10:26.237Z,2.00
2018-12-07T09:12:54.624Z,0.60
2018-12-07T09:15:23.079Z,0.80
2018-12-07T09:17:51.448Z,0.33
2018-12-07T09:20:19.735Z,0.70
2018-12-07T09:22:48.061Z,0.80
2018-12-07T09:25:16.332Z,0.40
2018-12-07T09:27:44.643Z,0.40
2018-12-07T09:30:13.016Z,0.60
2018-12-07T09:32:41.466Z,0.60
2018-12-07T09:35:09.944Z,0.40
2018-12-07T09:37:38.243Z,0.40
2018-12-07T09:40:06.532Z,0.50
2018-12-07T09:42:34.898Z,0.43
2018-12-07T09:45:03.185Z,0.60
2018-12-07T09:47:31.545Z,0.53
2018-12-07T09:49:59.923Z,0.40
2018-12-07T09:52:28.417Z,0.83
2018-12-07T09:54:56.786Z,0.40
2018-12-07T09:57:25.275Z,0.40
2018-12-07T09:59:53.648Z,0.40
2018-12-07T10:02:21.911Z,0.63
2018-12-07T10:04:50.202Z,0.50
2018-12-07T10:07:18.571Z,0.40
2018-12-07T10:09:46.867Z,0.50
2018-12-07T10:12:15.230Z,0.50
2018-12-07T10:14:43.613Z,0.60
2018-12-07T10:17:11.887Z,0.40
2018-12-07T10:19:40.257Z,0.43
2018-12-07T10:22:08.529Z,0.50
2018-12-07T10:24:36.821Z,0.60
2018-12-07T10:27:05.906Z,0.50
2018-12-07T10:29:34.355Z,0.40
2018-12-07T10:32:02.613Z,0.50
2018-12-07T10:34:31.161Z,0.60
2018-12-07T10:36:59.529Z,0.30
2018-12-07T10:39:27.825Z,0.80
2018-12-07T10:41:56.168Z,0.63
2018-12-07T10:44:24.496Z,0.50
2018-12-07T10:46:53.411Z,0.40
2018-12-07T10:49:21.692Z,0.60
2018-12-07T10:51:49.956Z,0.40
2018-12-07T10:54:18.472Z,0.20
2018-12-07T10:56:46.749Z,0.50
2018-12-07T10:59:15.049Z,0.50
2018-12-07T11:01:48.758Z,0.50
2018-12-07T11:04:22.561Z,0.37
2018-12-07T11:06:52.589Z,0.33
2018-12-07T11:09:26.413Z,0.33
2018-12-07T11:12:00.303Z,0.40
2018-12-07T11:17:43.852Z,0.30
2018-12-07T11:20:17.677Z,0.30
2018-12-07T11:26:00.819Z,0.40
2018-12-07T11:28:34.496Z,0.40
2018-12-07T11:34:05.093Z,0.40
2018-12-07T11:36:33.373Z,0.50
2018-12-07T11:39:01.749Z,0.20
2018-12-07T11:41:30.100Z,0.30
2018-12-07T11:43:58.366Z,0.30
2018-12-07T11:46:26.658Z,0.30
2018-12-07T11:48:54.934Z,0.27
2018-12-07T11:51:23.300Z,0.30
2018-12-07T11:53:51.566Z,0.40
2018-12-07T11:56:19.941Z,0.30
2018-12-07T11:58:48.329Z,0.20
2018-12-07T12:01:16.634Z,0.50
2018-12-07T12:03:44.910Z,0.40
2018-12-07T12:06:13.229Z,0.30
2018-12-07T12:08:41.489Z,0.40
2018-12-07T12:11:09.849Z,0.30
2018-12-07T12:13:38.123Z,0.40
2018-12-07T12:16:06.562Z,0.30
2018-12-07T12:18:34.972Z,0.30
2018-12-07T12:21:03.263Z,0.30
2018-12-07T12:23:31.532Z,0.30
2018-12-07T12:25:59.993Z,0.50
2018-12-07T12:28:28.261Z,0.30
2018-12-07T12:30:57.541Z,0.60
2018-12-07T12:33:25.950Z,0.30
2018-12-07T12:35:54.260Z,0.40
2018-12-07T12:38:22.594Z,0.30
2018-12-07T12:40:51.058Z,0.33
2018-12-07T12:43:19.370Z,0.47
2018-12-07T12:45:47.743Z,0.40
2018-12-07T12:48:16.009Z,0.40
2018-12-07T12:50:44.386Z,0.30
2018-12-07T12:53:12.734Z,0.37
2018-12-07T12:55:41.018Z,0.20
2018-12-07T12:58:09.525Z,0.50
2018-12-07T13:00:37.969Z,0.33
2018-12-07T13:03:06.261Z,0.30
2018-12-07T13:05:34.529Z,0.30
2018-12-07T13:08:03.105Z,0.43
2018-12-07T13:10:31.529Z,0.30
2018-12-07T13:12:59.839Z,0.27
2018-12-07T13:15:28.147Z,0.50
2018-12-07T13:17:56.536Z,0.37
2018-12-07T13:20:24.835Z,0.57
2018-12-07T13:22:53.176Z,0.50
2018-12-07T13:25:21.464Z,0.60
2018-12-07T13:27:49.866Z,0.40
2018-12-07T13:30:18.318Z,0.50
2018-12-07T13:32:46.603Z,0.30
2018-12-07T13:35:15.077Z,0.43
2018-12-07T13:37:43.550Z,0.30
2018-12-07T13:40:11.830Z,0.50
2018-12-07T13:42:40.419Z,0.40
2018-12-07T13:45:08.835Z,0.60
2018-12-07T13:47:37.646Z,0.60
2018-12-07T13:50:11.640Z,0.40
2018-12-07T13:52:40.267Z,0.50
2018-12-07T13:55:08.922Z,0.50
2018-12-07T13:57:37.582Z,0.50
2018-12-07T14:00:08.045Z,0.30
2018-12-07T14:02:36.490Z,0.60
2018-12-07T14:05:05.421Z,0.60
2018-12-07T14:07:34.087Z,0.60
2018-12-07T14:10:02.835Z,0.30
2018-12-07T14:12:31.500Z,0.40
2018-12-07T14:14:59.990Z,0.20
2018-12-07T14:17:28.793Z,0.30
2018-12-07T14:19:57.439Z,0.50
2018-12-07T14:22:26.177Z,0.40
2018-12-07T14:24:54.938Z,0.43
2018-12-07T14:27:23.657Z,0.43
2018-12-07T14:29:52.210Z,0.40
2018-12-07T14:32:21.001Z,0.30
2018-12-07T14:34:49.710Z,0.60
2018-12-07T14:37:18.682Z,0.30
2018-12-07T14:39:47.427Z,0.40
2018-12-07T14:42:16.162Z,0.70
2018-12-07T14:44:44.877Z,0.60
2018-12-07T14:47:13.601Z,0.40
2018-12-07T14:49:42.294Z,0.40
2018-12-07T14:52:11.112Z,0.27
2018-12-07T14:54:39.692Z,0.47
2018-12-07T14:57:08.137Z,0.50
2018-12-07T14:59:36.992Z,0.37
2018-12-07T15:02:05.534Z,0.60
2018-12-07T15:04:34.141Z,0.43
2018-12-07T15:07:03.098Z,0.30
2018-12-07T15:09:31.788Z,0.43
2018-12-07T15:12:01.464Z,0.33
2018-12-07T15:14:30.057Z,0.40
2018-12-07T15:16:58.665Z,0.53
2018-12-07T15:19:27.471Z,0.33
2018-12-07T15:21:56.008Z,0.50
2018-12-07T15:24:24.808Z,0.50
2018-12-07T15:26:53.311Z,0.40
2018-12-07T15:29:21.968Z,0.40
2018-12-07T15:31:50.753Z,0.63
2018-12-07T15:34:19.418Z,0.40
2018-12-07T15:36:49.060Z,0.70
2018-12-07T15:39:17.889Z,0.77
2018-12-07T15:41:46.638Z,0.70
2018-12-07T15:44:15.487Z,0.73
2018-12-07T15:46:44.246Z,0.50
2018-12-07T15:49:13.049Z,0.60
2018-12-07T15:51:41.694Z,0.60
2018-12-07T15:54:10.234Z,0.53
2018-12-07T15:56:39.008Z,0.70
2018-12-07T15:59:07.597Z,0.60
2018-12-07T16:01:36.062Z,0.83
2018-12-07T16:04:04.602Z,0.60
2018-12-07T16:06:33.428Z,0.90
2018-12-07T16:09:02.056Z,0.80
2018-12-07T16:11:32.518Z,0.90
2018-12-07T16:14:01.349Z,1.00
2018-12-07T16:16:29.710Z,1.00
2018-12-07T16:18:58.456Z,0.77
2018-12-07T16:21:27.081Z,0.70
2018-12-07T16:23:55.482Z,1.23
2018-12-07T16:26:24.394Z,0.87
2018-12-07T16:28:53.137Z,0.80
2018-12-07T16:31:21.625Z,0.73
2018-12-07T16:33:50.220Z,0.87
2018-12-07T16:36:19.107Z,1.30
2018-12-07T16:38:47.785Z,0.77
2018-12-07T16:41:16.452Z,1.00
2018-12-07T16:43:45.224Z,0.90
2018-12-07T16:46:13.845Z,1.40
2018-12-07T16:48:42.329Z,0.97
2018-12-07T16:51:11.221Z,1.60
2018-12-07T16:53:39.723Z,1.27
2018-12-07T16:56:08.240Z,1.30
2018-12-07T16:58:36.882Z,1.10
2018-12-07T17:01:05.635Z,1.30
2018-12-07T17:03:34.500Z,1.00
2018-12-07T17:06:03.177Z,1.23
2018-12-07T17:08:31.722Z,1.37
2018-12-07T17:11:00.286Z,1.30
2018-12-07T17:13:29.019Z,1.20
2018-12-07T17:15:57.608Z,1.40
2018-12-07T17:18:26.390Z,1.80
2018-12-07T17:20:55.247Z,1.10
2018-12-07T17:23:23.904Z,1.70
2018-12-07T17:25:52.270Z,1.50
2018-12-07T17:28:20.549Z,1.67
2018-12-07T17:30:49.105Z,1.40
2018-12-07T17:33:17.772Z,1.90
2018-12-07T17:35:46.343Z,1.67
2018-12-07T17:38:15.090Z,1.60
2018-12-07T17:40:43.655Z,2.03
2018-12-07T17:43:12.157Z,1.60
2018-12-07T17:45:40.528Z,2.00
2018-12-07T17:48:08.894Z,1.90
2018-12-07T17:50:37.806Z,1.50
2018-12-07T17:53:06.518Z,1.20
2018-12-07T17:55:35.263Z,1.57
2018-12-07T17:58:03.839Z,1.20
2018-12-07T18:00:32.218Z,1.30
2018-12-07T18:03:00.698Z,1.60
2018-12-07T18:05:28.994Z,1.50
2018-12-07T18:07:57.353Z,1.30
2018-12-07T18:10:25.968Z,1.50
2018-12-07T18:12:54.517Z,1.13
2018-12-07T18:15:22.884Z,1.50
2018-12-07T18:17:51.458Z,1.20
2018-12-07T18:20:19.976Z,1.60
2018-12-07T18:22:48.431Z,1.70
2018-12-07T18:25:16.980Z,1.70
2018-12-07T18:27:45.499Z,2.60
2018-12-07T18:30:13.970Z,1.83
2018-12-07T18:32:42.535Z,2.07
2018-12-07T18:35:10.878Z,1.97
2018-12-07T18:37:39.397Z,2.00
2018-12-07T18:40:07.845Z,1.90
2018-12-07T18:42:36.550Z,2.10
2018-12-07T18:45:05.264Z,1.97
2018-12-07T18:47:33.800Z,2.00
2018-12-07T18:50:02.754Z,1.90
2018-12-07T18:52:31.320Z,2.60
2018-12-07T18:55:00.045Z,2.50
2018-12-07T18:57:29.047Z,2.30
2018-12-07T18:59:57.734Z,2.07
2018-12-07T19:02:26.790Z,2.63
2018-12-07T19:04:55.287Z,2.90
2018-12-07T19:07:23.577Z,2.30
2018-12-07T19:09:52.182Z,2.60
2018-12-07T19:12:20.789Z,2.67
2018-12-07T19:14:49.274Z,2.63
2018-12-07T19:17:17.950Z,2.70
2018-12-07T19:19:46.806Z,2.87
2018-12-07T19:22:15.479Z,3.27
2018-12-07T19:24:44.023Z,2.90
2018-12-07T19:27:12.775Z,3.03
2018-12-07T19:29:41.402Z,2.80
2018-12-07T19:32:10.334Z,3.17
2018-12-07T19:34:39.201Z,3.13
2018-12-07T19:37:07.796Z,3.10
2018-12-07T19:39:36.338Z,3.10
2018-12-07T19:42:05.223Z,3.10
2018-12-07T19:44:34.406Z,3.37
2018-12-07T19:47:03.111Z,3.40
2018-12-07T19:49:31.806Z,3.90
2018-12-07T19:52:00.623Z,3.53
2018-12-07T19:54:29.141Z,3.13
2018-12-07T19:56:57.903Z,3.60
2018-12-07T19:59:26.516Z,3.80
2018-12-07T20:01:55.097Z,3.60
2018-12-07T20:04:23.702Z,3.43
2018-12-07T20:06:52.358Z,3.20
2018-12-07T20:09:21.017Z,3.20
2018-12-07T20:11:49.711Z,3.43
2018-12-07T20:14:18.154Z,3.50
2018-12-07T20:16:46.752Z,3.70
2018-12-07T20:19:15.355Z,3.40
2018-12-07T20:21:44.154Z,3.57
2018-12-07T20:24:13.916Z,3.40
2018-12-07T20:26:42.366Z,3.23
2018-12-07T20:29:11.329Z,3.20
2018-12-07T20:31:39.934Z,3.40
2018-12-07T20:34:08.222Z,3.10
2018-12-07T20:36:36.843Z,3.33
2018-12-07T20:39:07.241Z,2.93
2018-12-07T20:41:35.940Z,2.60
2018-12-07T20:44:04.669Z,2.80
2018-12-07T20:46:33.564Z,3.07
2018-12-07T20:49:02.359Z,3.00
2018-12-07T20:51:30.890Z,2.37
2018-12-07T20:53:59.573Z,2.00
2018-12-07T20:56:28.330Z,1.57
2018-12-07T20:58:57.334Z,2.00
2018-12-07T21:01:25.971Z,1.43
2018-12-07T21:04:08.933Z,1.30
2018-12-07T21:10:03.563Z,1.27
2018-12-07T21:19:14.685Z,1.00
2018-12-07T21:21:43.450Z,1.00
2018-12-07T21:24:12.413Z,0.90
2018-12-07T21:26:41.115Z,0.70
2018-12-07T21:29:10.152Z,0.93
2018-12-07T21:31:38.820Z,0.60
2018-12-07T21:34:14.028Z,0.60
2018-12-07T21:36:42.767Z,0.67
2018-12-07T21:39:16.577Z,0.77
2018-12-07T21:41:45.289Z,0.60
2018-12-07T21:44:13.968Z,0.50
2018-12-07T21:46:42.737Z,0.60
2018-12-07T21:49:11.513Z,0.50
2018-12-07T21:51:48.855Z,0.33
2018-12-07T21:54:17.462Z,0.40
2018-12-07T21:56:46.059Z,0.73
2018-12-07T21:59:14.556Z,0.40
2018-12-07T22:01:43.606Z,0.37
2018-12-07T22:04:13.034Z,0.30
2018-12-07T22:06:41.600Z,0.43
2018-12-07T22:09:10.640Z,0.40
2018-12-07T22:11:39.225Z,0.30
2018-12-07T22:14:07.532Z,0.30
2018-12-07T22:16:36.165Z,0.30
2018-12-07T22:19:04.728Z,0.50
2018-12-07T22:21:33.230Z,0.20
2018-12-07T22:24:01.882Z,0.30
2018-12-07T22:26:30.534Z,0.40
2018-12-07T22:28:59.477Z,0.20
2018-12-07T22:31:28.361Z,0.27
2018-12-07T22:33:57.408Z,0.30
2018-12-07T22:36:26.096Z,0.30
2018-12-07T22:38:54.822Z,0.20
2018-12-07T22:41:23.537Z,0.20
2018-12-07T22:43:52.290Z,0.20
2018-12-07T22:46:21.237Z,0.20
2018-12-07T22:48:49.891Z,0.20
2018-12-07T22:51:20.733Z,0.20
2018-12-07T22:53:49.135Z,0.30
2018-12-07T22:56:17.637Z,0.30
2018-12-07T22:58:46.021Z,0.27
2018-12-07T23:01:14.304Z,0.30
2018-12-07T23:03:42.922Z,0.30
2018-12-07T23:06:11.448Z,0.20
2018-12-07T23:08:39.747Z,0.23
2018-12-07T23:11:08.043Z,0.57
2018-12-07T23:13:36.417Z,0.20
2018-12-07T23:16:04.730Z,0.20
2018-12-07T23:18:33.001Z,0.20
2018-12-07T23:21:01.335Z,0.20
2018-12-07T23:23:29.649Z,0.20
2018-12-07T23:25:57.948Z,0.40
2018-12-07T23:28:26.583Z,0.40
2018-12-07T23:30:55.032Z,0.20
2018-12-07T23:33:23.364Z,0.37
2018-12-07T23:35:51.732Z,0.20
2018-12-07T23:38:20.008Z,0.20
2018-12-07T23:40:48.465Z,0.20
2018-12-07T23:43:16.729Z,0.40
2018-12-07T23:45:45.089Z,0.20
2018-12-07T23:48:13.430Z,0.40
2018-12-07T23:50:41.790Z,0.33
2018-12-07T23:53:10.079Z,0.30
2018-12-07T23:55:38.452Z,0.20
2018-12-07T23:58:06.844Z,0.30
